Time;durP1;ratioP1;P1;durP2;ratioP2;P2;SDS_P1;SDS_P2;PMS_P1;PMS_P2;Temp;Humidity;BMP_temperature;BMP_pressure;BME280_temperature;BME280_humidity;BME280_pressure;Samples;Min_cycle;Max_cycle;Signal;HPM_P1;HPM_P2
2022/07/26 00:01:21;;;;;;;6.03;2.33;;;20.50;96.50;;;;;;4983200;28;20465;-80
2022/07/26 00:03:50;;;;;;;9.57;3.10;;;20.40;96.60;;;;;;4983450;28;20480;-80
2022/07/26 00:06:20;;;;;;;5.33;2.47;;;20.40;96.60;;;;;;4982336;28;20495;-80
2022/07/26 00:08:48;;;;;;;9.00;3.03;;;20.40;96.70;;;;;;5000619;28;20432;-80
2022/07/26 00:11:17;;;;;;;7.07;3.40;;;20.40;96.80;;;;;;4983589;28;20459;-80
2022/07/26 00:13:46;;;;;;;6.60;3.00;;;20.40;96.90;;;;;;4982972;28;21035;-80
2022/07/26 00:16:15;;;;;;;6.33;2.90;;;20.40;97.00;;;;;;5000830;28;20492;-80
2022/07/26 00:18:43;;;;;;;7.10;3.00;;;20.40;97.00;;;;;;5001015;28;20453;-80
2022/07/26 00:21:11;;;;;;;6.40;2.73;;;20.30;97.10;;;;;;4982459;28;20495;-80
2022/07/26 00:23:41;;;;;;;6.10;3.00;;;20.30;97.20;;;;;;5005508;28;20460;-80
2022/07/26 00:26:09;;;;;;;10.07;3.17;;;20.30;97.30;;;;;;5010914;28;20536;-80
2022/07/26 00:28:40;;;;;;;7.67;3.07;;;20.30;97.30;;;;;;4994402;28;20489;-80
2022/07/26 00:31:10;;;;;;;6.70;2.97;;;20.20;97.40;;;;;;4993073;28;20444;-80
2022/07/26 00:33:39;;;;;;;6.07;3.43;;;20.20;97.40;;;;;;4989075;28;20477;-80
2022/07/26 00:36:08;;;;;;;7.30;3.27;;;20.20;97.50;;;;;;4981795;28;20444;-80
2022/07/26 00:38:37;;;;;;;8.07;3.23;;;20.10;97.60;;;;;;4982103;28;20459;-80
2022/07/26 00:41:08;;;;;;;6.43;2.57;;;20.10;97.70;;;;;;4981596;28;20453;-80
2022/07/26 00:43:36;;;;;;;8.43;3.00;;;20.10;97.80;;;;;;4999621;28;20459;-80
2022/07/26 00:46:04;;;;;;;7.13;3.30;;;20.10;97.90;;;;;;4998837;28;20561;-80
2022/07/26 00:48:33;;;;;;;10.50;3.30;;;20.00;97.90;;;;;;4998769;28;20506;-80
2022/07/26 00:51:02;;;;;;;8.00;3.33;;;20.00;98.00;;;;;;4981760;28;20828;-80
2022/07/26 00:53:30;;;;;;;6.33;3.00;;;20.00;98.20;;;;;;4981099;28;20495;-80
2022/07/26 00:55:58;;;;;;;7.47;3.00;;;20.00;98.30;;;;;;4999073;28;20519;-80
2022/07/26 00:58:28;;;;;;;7.70;2.50;;;20.00;98.40;;;;;;4981184;28;20456;-80
2022/07/26 01:00:56;;;;;;;6.20;3.97;;;20.00;98.60;;;;;;4980787;28;20552;-80
2022/07/26 01:03:24;;;;;;;8.50;3.13;;;20.00;98.60;;;;;;4981261;28;20476;-81
2022/07/26 01:06:07;;;;;;;6.87;3.43;;;19.90;98.70;;;;;;4984391;28;20496;-81
2022/07/26 01:08:35;;;;;;;7.57;2.70;;;20.00;98.80;;;;;;5001164;28;20864;-81
2022/07/26 01:11:04;;;;;;;7.93;2.90;;;19.90;98.90;;;;;;4983254;28;20537;-81
2022/07/26 01:13:34;;;;;;;7.13;3.90;;;19.90;99.00;;;;;;4999834;28;20555;-81
2022/07/26 01:16:03;;;;;;;13.10;3.70;;;19.90;99.10;;;;;;4982462;28;20783;-81
2022/07/26 01:18:31;;;;;;;8.30;3.77;;;19.90;99.20;;;;;;4982024;28;20504;-81
2022/07/26 01:21:02;;;;;;;8.40;3.13;;;19.90;99.20;;;;;;4982403;28;20499;-81
2022/07/26 01:23:42;;;;;;;8.03;3.00;;;19.80;99.30;;;;;;4981407;28;20500;-81
2022/07/26 01:26:11;;;;;;;6.90;3.83;;;19.80;99.50;;;;;;4998418;28;20540;-81
2022/07/26 01:28:41;;;;;;;7.73;3.23;;;19.80;99.60;;;;;;4980632;28;20457;-81
2022/07/26 01:31:09;;;;;;;8.00;3.40;;;19.80;99.70;;;;;;4998743;28;20520;-81
2022/07/26 01:33:37;;;;;;;11.00;3.80;;;19.80;99.80;;;;;;4981348;28;20469;-80
2022/07/26 01:36:06;;;;;;;8.90;4.10;;;19.70;99.90;;;;;;4999781;28;21021;-80
2022/07/26 01:38:34;;;;;;;8.80;3.50;;;19.70;99.90;;;;;;5009169;28;20437;-80
2022/07/26 01:41:04;;;;;;;7.53;3.40;;;19.70;99.90;;;;;;5009547;28;20498;-80
2022/07/26 01:43:32;;;;;;;9.90;4.53;;;19.70;99.90;;;;;;4987115;28;20492;-80
2022/07/26 01:46:00;;;;;;;9.03;3.53;;;19.60;99.90;;;;;;4988791;28;20484;-80
2022/07/26 01:48:29;;;;;;;8.43;3.20;;;19.70;99.90;;;;;;5000393;28;20491;-82
2022/07/26 01:50:58;;;;;;;10.80;3.47;;;19.60;99.90;;;;;;4981614;28;20445;-81
2022/07/26 01:53:26;;;;;;;6.53;3.47;;;19.60;99.90;;;;;;4981148;28;20476;-81
2022/07/26 01:55:54;;;;;;;8.30;3.47;;;19.60;99.90;;;;;;4998404;28;20461;-81
2022/07/26 01:58:24;;;;;;;10.10;3.80;;;19.60;99.90;;;;;;4981020;28;20456;-81
2022/07/26 02:00:52;;;;;;;7.63;3.13;;;19.60;99.90;;;;;;4980503;28;20495;-80
2022/07/26 02:03:20;;;;;;;11.23;3.47;;;19.60;99.90;;;;;;4997218;28;20884;-81
2022/07/26 02:05:49;;;;;;;8.47;3.30;;;19.60;99.90;;;;;;4980246;28;20445;-81
2022/07/26 02:08:17;;;;;;;11.17;3.40;;;19.60;99.90;;;;;;4997870;28;20452;-81
2022/07/26 02:11:03;;;;;;;9.93;3.50;;;19.60;99.90;;;;;;4980642;28;20445;-81
2022/07/26 02:13:34;;;;;;;8.57;3.70;;;19.60;99.90;;;;;;4998732;28;20476;-81
2022/07/26 02:16:03;;;;;;;11.93;3.30;;;19.50;99.90;;;;;;4979258;28;20451;-81
2022/07/26 02:18:32;;;;;;;8.53;3.60;;;19.50;99.90;;;;;;4979165;28;20452;-81
2022/07/26 02:21:01;;;;;;;10.20;4.20;;;19.50;99.90;;;;;;4979066;28;20463;-81
2022/07/26 02:23:43;;;;;;;8.83;3.63;;;19.50;99.90;;;;;;4936363;29;20538;-81
2022/07/26 02:26:12;;;;;;;9.40;3.77;;;19.50;99.90;;;;;;4920256;29;20483;-80
2022/07/26 02:28:42;;;;;;;8.60;3.87;;;19.50;99.90;;;;;;4921117;29;20447;-81
2022/07/26 02:31:10;;;;;;;9.60;3.90;;;19.50;99.90;;;;;;4940775;29;20485;-81
2022/07/26 02:33:42;;;;;;;8.67;4.43;;;19.50;99.90;;;;;;4924585;29;20467;-81
2022/07/26 02:36:10;;;;;;;10.17;3.90;;;19.40;99.90;;;;;;4925220;29;20469;-81
2022/07/26 02:38:38;;;;;;;8.40;3.97;;;19.40;99.90;;;;;;4925096;29;20514;-81
2022/07/26 02:41:07;;;;;;;8.07;3.83;;;19.40;99.90;;;;;;4939878;29;20461;-80
2022/07/26 02:43:35;;;;;;;8.10;4.63;;;19.40;99.90;;;;;;4940650;29;20467;-81
2022/07/26 02:46:04;;;;;;;10.53;4.37;;;19.40;99.90;;;;;;4940676;29;20439;-80
2022/07/26 02:48:33;;;;;;;8.67;4.03;;;19.30;99.90;;;;;;4925207;29;20574;-81
2022/07/26 02:51:01;;;;;;;9.30;3.20;;;19.30;99.90;;;;;;4925501;29;20440;-81
2022/07/26 02:53:30;;;;;;;9.27;4.20;;;19.30;99.90;;;;;;4942168;28;20471;-80
2022/07/26 02:55:58;;;;;;;8.37;3.93;;;19.30;99.90;;;;;;4982781;28;20910;-80
2022/07/26 02:58:26;;;;;;;10.90;4.27;;;19.30;99.90;;;;;;4999506;28;20502;-81
2022/07/26 03:00:55;;;;;;;9.17;3.47;;;19.20;99.90;;;;;;4983026;28;20563;-81
2022/07/26 03:03:24;;;;;;;8.70;3.80;;;19.30;99.90;;;;;;5001206;28;20507;-81
2022/07/26 03:08:42;;;;;;;7.73;3.50;;;19.20;99.90;;;;;;4982755;28;20847;-81
2022/07/26 03:11:10;;;;;;;8.60;4.23;;;19.20;99.90;;;;;;4984717;28;20452;-81
2022/07/26 03:13:39;;;;;;;9.10;4.47;;;19.20;99.90;;;;;;5001719;28;20480;-81
2022/07/26 03:16:08;;;;;;;9.93;3.90;;;19.10;99.90;;;;;;4984710;28;20507;-81
2022/07/26 03:18:38;;;;;;;9.20;4.03;;;19.10;99.90;;;;;;4984748;28;20502;-81
2022/07/26 03:21:06;;;;;;;7.40;3.80;;;19.10;99.90;;;;;;4984829;28;20448;-81
2022/07/26 03:23:35;;;;;;;9.10;3.90;;;19.10;99.90;;;;;;4984345;28;20575;-81
2022/07/26 03:26:03;;;;;;;5.87;3.60;;;19.10;99.90;;;;;;5002352;28;20468;-81
2022/07/26 03:28:32;;;;;;;6.17;3.40;;;19.00;99.90;;;;;;5000631;28;20476;-81
2022/07/26 03:31:01;;;;;;;9.73;4.10;;;19.10;99.90;;;;;;5002157;28;20437;-81
2022/07/26 03:33:30;;;;;;;10.27;4.50;;;19.00;99.90;;;;;;4984435;28;20468;-81
2022/07/26 03:36:00;;;;;;;9.20;4.30;;;19.00;99.90;;;;;;5001663;28;20507;-81
2022/07/26 03:38:28;;;;;;;9.27;3.60;;;19.00;99.90;;;;;;5001132;28;20444;-81
2022/07/26 03:40:57;;;;;;;12.80;4.53;;;19.00;99.90;;;;;;5000954;28;20970;-81
2022/07/26 03:43:25;;;;;;;12.70;5.00;;;19.00;99.90;;;;;;4983651;28;21053;-81
2022/07/26 03:45:53;;;;;;;12.20;4.60;;;19.00;99.90;;;;;;5001173;28;20448;-81
2022/07/26 03:48:22;;;;;;;8.17;3.80;;;19.00;99.90;;;;;;4983304;28;20472;-81
2022/07/26 03:50:50;;;;;;;7.60;3.60;;;18.90;99.90;;;;;;4983550;28;20448;-81
2022/07/26 03:53:19;;;;;;;16.93;5.30;;;18.90;99.90;;;;;;4984009;28;20819;-81
2022/07/26 03:58:33;;;;;;;8.77;4.50;;;18.90;99.90;;;;;;4982188;28;20499;-81
2022/07/26 04:01:20;;;;;;;12.27;4.80;;;18.90;99.90;;;;;;5000766;28;20460;-81
2022/07/26 04:03:52;;;;;;;8.20;4.07;;;18.90;99.90;;;;;;4983660;28;20464;-81
2022/07/26 04:06:21;;;;;;;8.47;3.93;;;18.90;99.90;;;;;;4984051;28;20448;-81
2022/07/26 04:08:51;;;;;;;11.70;4.70;;;18.80;99.90;;;;;;4985326;28;20473;-81
2022/07/26 04:11:20;;;;;;;10.03;4.50;;;18.90;99.90;;;;;;4985272;28;20452;-81
2022/07/26 04:13:48;;;;;;;8.73;4.03;;;18.90;99.90;;;;;;4984034;28;20515;-82
2022/07/26 04:16:16;;;;;;;12.00;4.37;;;18.90;99.90;;;;;;4984225;28;20551;-81
2022/07/26 04:18:44;;;;;;;10.60;5.83;;;18.90;99.90;;;;;;5001587;28;20499;-81
2022/07/26 04:21:13;;;;;;;8.60;4.50;;;18.90;99.90;;;;;;4984398;28;20456;-81
2022/07/26 04:23:41;;;;;;;8.47;4.63;;;18.90;99.90;;;;;;5006552;28;20496;-81
2022/07/26 04:26:16;;;;;;;9.40;4.03;;;18.90;99.90;;;;;;5014004;28;20429;-81
2022/07/26 04:28:44;;;;;;;9.90;4.13;;;18.90;99.90;;;;;;4995962;28;20473;-81
2022/07/26 04:31:12;;;;;;;9.90;4.17;;;18.90;99.90;;;;;;5007448;28;20475;-81
2022/07/26 04:33:41;;;;;;;12.33;4.37;;;18.90;99.90;;;;;;5000645;28;20452;-82
2022/07/26 04:36:09;;;;;;;13.30;5.23;;;18.90;99.90;;;;;;5000549;28;20539;-80
2022/07/26 04:38:38;;;;;;;10.33;5.10;;;18.90;99.90;;;;;;4982041;28;20480;-79
2022/07/26 04:41:06;;;;;;;13.63;4.93;;;19.00;99.90;;;;;;4981904;28;20445;-79
2022/07/26 04:43:36;;;;;;;13.47;5.23;;;19.00;99.90;;;;;;4981341;28;20990;-79
2022/07/26 04:46:04;;;;;;;7.60;4.10;;;19.00;99.90;;;;;;4998823;28;20507;-79
2022/07/26 04:48:33;;;;;;;12.40;5.00;;;19.00;99.90;;;;;;4999080;28;20476;-79
2022/07/26 04:51:01;;;;;;;10.53;4.90;;;19.10;99.90;;;;;;4981386;28;20544;-79
2022/07/26 04:53:29;;;;;;;7.87;4.70;;;19.10;99.90;;;;;;4980808;28;20471;-79
2022/07/26 04:55:57;;;;;;;10.97;4.83;;;19.10;99.90;;;;;;4981062;28;20811;-79
2022/07/26 04:58:26;;;;;;;15.73;5.67;;;19.10;99.90;;;;;;4980764;28;20978;-79
2022/07/26 05:00:55;;;;;;;10.67;5.23;;;19.10;99.90;;;;;;4998850;28;20453;-80
2022/07/26 05:03:37;;;;;;;12.00;5.20;;;19.10;99.90;;;;;;5000147;28;20452;-80
2022/07/26 05:06:05;;;;;;;8.80;4.37;;;19.10;99.90;;;;;;4985022;28;20456;-80
2022/07/26 05:08:33;;;;;;;10.60;4.70;;;19.20;99.90;;;;;;4990664;28;20480;-81
2022/07/26 05:11:02;;;;;;;8.80;4.40;;;19.20;99.90;;;;;;4988998;28;20524;-81
2022/07/26 05:13:31;;;;;;;9.17;4.77;;;19.20;99.90;;;;;;4991769;28;20469;-81
2022/07/26 05:16:00;;;;;;;11.43;4.70;;;19.20;99.90;;;;;;4989319;28;20445;-80
2022/07/26 05:18:30;;;;;;;12.67;5.03;;;19.20;99.90;;;;;;4988055;28;20449;-80
2022/07/26 05:21:17;;;;;;;9.40;5.03;;;19.20;99.90;;;;;;5004031;28;20772;-81
2022/07/26 05:23:45;;;;;;;8.57;4.83;;;19.20;99.90;;;;;;4984465;28;20479;-80
2022/07/26 05:26:13;;;;;;;10.63;5.90;;;19.20;99.90;;;;;;4981733;28;20950;-79
2022/07/26 05:28:41;;;;;;;9.23;5.30;;;19.10;99.90;;;;;;4977907;28;20527;-76
2022/07/26 05:31:11;;;;;;;11.03;5.43;;;19.10;99.90;;;;;;4982484;28;20445;-80
2022/07/26 05:33:39;;;;;;;8.90;4.73;;;19.10;99.90;;;;;;4999309;28;20519;-81
2022/07/26 05:36:08;;;;;;;5.80;4.10;;;19.00;99.90;;;;;;4981928;28;20958;-81
2022/07/26 05:38:36;;;;;;;6.00;3.47;;;19.00;99.90;;;;;;4981661;28;20544;-81
2022/07/26 05:41:05;;;;;;;4.87;3.03;;;18.90;99.90;;;;;;4981770;28;20576;-83
2022/07/26 05:43:34;;;;;;;4.20;3.13;;;18.80;99.90;;;;;;4981143;28;20480;-81
2022/07/26 05:46:11;;;;;;;8.97;3.30;;;18.80;99.90;;;;;;4999916;28;20504;-82
2022/07/26 05:48:40;;;;;;;7.17;3.60;;;18.70;99.90;;;;;;4998719;28;20551;-82
2022/07/26 05:51:08;;;;;;;7.37;3.73;;;18.60;99.90;;;;;;4981969;28;20440;-82
2022/07/26 05:53:37;;;;;;;6.83;4.03;;;18.60;99.90;;;;;;4983676;28;20476;-82
2022/07/26 05:56:06;;;;;;;5.10;3.80;;;18.50;99.90;;;;;;4983384;28;20475;-82
2022/07/26 05:58:34;;;;;;;5.43;4.00;;;18.50;99.90;;;;;;4983429;28;20460;-82
2022/07/26 06:01:03;;;;;;;5.77;3.73;;;18.50;99.90;;;;;;4983217;28;20969;-83
2022/07/26 06:03:32;;;;;;;7.23;4.13;;;18.50;99.90;;;;;;4981950;28;20500;-83
2022/07/26 06:06:00;;;;;;;5.83;3.90;;;18.40;99.90;;;;;;4983808;28;20453;-83
2022/07/26 06:08:28;;;;;;;5.83;3.67;;;18.50;99.90;;;;;;4982159;28;20483;-83
2022/07/26 06:10:57;;;;;;;6.60;3.80;;;18.50;99.90;;;;;;4982477;28;20977;-83
2022/07/26 06:13:26;;;;;;;11.60;5.83;;;18.50;99.90;;;;;;4982993;28;20492;-83
2022/07/26 06:15:54;;;;;;;7.87;4.00;;;18.50;99.90;;;;;;4984972;28;20453;-82
2022/07/26 06:18:22;;;;;;;5.33;3.10;;;18.50;99.90;;;;;;4984149;28;20459;-82
2022/07/26 06:20:52;;;;;;;5.47;3.40;;;18.50;99.90;;;;;;4985417;28;20469;-82
2022/07/26 06:23:20;;;;;;;6.40;3.90;;;18.50;99.90;;;;;;4985036;28;20469;-84
2022/07/26 06:26:03;;;;;;;7.23;4.20;;;18.50;99.90;;;;;;5001576;28;20974;-83
2022/07/26 06:28:32;;;;;;;5.93;3.70;;;18.50;99.90;;;;;;4984810;28;20998;-83
2022/07/26 06:31:00;;;;;;;6.10;3.93;;;18.60;99.90;;;;;;4986826;28;20445;-83
2022/07/26 06:33:28;;;;;;;5.80;3.50;;;18.60;99.90;;;;;;5003118;28;20465;-83
2022/07/26 06:35:59;;;;;;;8.60;4.00;;;18.70;99.90;;;;;;4988035;28;20476;-83
2022/07/26 06:38:27;;;;;;;7.10;3.50;;;18.70;99.90;;;;;;4989621;28;20456;-84
2022/07/26 06:40:56;;;;;;;4.53;3.10;;;18.70;99.90;;;;;;4988582;28;21013;-82
2022/07/26 06:43:24;;;;;;;6.00;3.43;;;18.70;99.90;;;;;;4987838;28;20483;-84
2022/07/26 06:45:52;;;;;;;6.03;3.30;;;18.60;99.90;;;;;;4986945;28;20484;-83
2022/07/26 06:48:21;;;;;;;7.90;2.47;;;18.60;99.90;;;;;;4982206;28;20540;-85
2022/07/26 06:50:50;;;;;;;5.70;2.60;;;18.60;99.90;;;;;;4982791;28;20453;-86
2022/07/26 06:53:19;;;;;;;8.03;2.07;;;18.50;99.90;;;;;;5000903;28;20479;-86
2022/07/26 06:55:48;;;;;;;5.83;2.53;;;18.50;99.90;;;;;;5000383;28;20438;-86
2022/07/26 06:58:16;;;;;;;3.50;2.27;;;18.40;99.90;;;;;;4982265;28;20958;-86
2022/07/26 07:00:44;;;;;;;3.50;1.80;;;18.40;99.90;;;;;;4985617;28;20444;-86
2022/07/26 07:03:13;;;;;;;6.07;1.70;;;18.40;99.90;;;;;;4984198;28;20499;-85
2022/07/26 07:05:41;;;;;;;3.57;1.57;;;18.40;99.90;;;;;;4984740;28;20463;-86
2022/07/26 07:08:17;;;;;;;6.03;1.60;;;18.40;99.90;;;;;;4983179;28;20445;-86
2022/07/26 07:10:47;;;;;;;5.13;2.33;;;18.40;99.90;;;;;;4982005;28;20461;-84
2022/07/26 07:13:18;;;;;;;5.93;2.43;;;18.40;99.90;;;;;;4980052;28;20530;-86
2022/07/26 07:15:46;;;;;;;3.93;1.40;;;18.40;99.90;;;;;;4982602;28;20465;-86
2022/07/26 07:18:15;;;;;;;5.60;1.77;;;18.40;99.90;;;;;;4984988;28;20452;-86
2022/07/26 07:20:43;;;;;;;4.97;1.87;;;18.50;99.90;;;;;;4982805;28;20460;-85
2022/07/26 07:23:11;;;;;;;4.17;1.80;;;18.50;99.90;;;;;;5000190;28;20468;-85
2022/07/26 07:25:40;;;;;;;7.13;1.80;;;18.50;99.90;;;;;;4982613;28;20503;-85
2022/07/26 07:28:13;;;;;;;4.23;1.50;;;18.60;99.90;;;;;;4981948;28;20447;-86
2022/07/26 07:30:41;;;;;;;4.97;1.60;;;18.60;99.90;;;;;;4982482;28;20515;-85
2022/07/26 07:33:11;;;;;;;5.17;2.00;;;18.60;99.90;;;;;;5000104;28;20471;-86
2022/07/26 07:35:50;;;;;;;2.50;1.10;;;18.60;99.90;;;;;;4982162;28;20476;-89
2022/07/26 07:38:19;;;;;;;4.47;1.20;;;18.50;99.90;;;;;;4981790;28;20456;-86
2022/07/26 07:40:50;;;;;;;3.50;1.37;;;18.50;99.90;;;;;;4999650;28;20449;-87
2022/07/26 07:43:19;;;;;;;5.47;1.53;;;18.40;99.90;;;;;;4998802;28;20870;-85
2022/07/26 07:45:47;;;;;;;3.30;1.10;;;18.30;99.90;;;;;;4981458;28;20493;-87
2022/07/26 07:48:16;;;;;;;5.17;1.60;;;18.20;99.90;;;;;;4982677;28;20459;-85
2022/07/26 07:50:44;;;;;;;6.73;1.50;;;18.10;99.90;;;;;;4983509;28;20472;-86
2022/07/26 07:53:13;;;;;;;7.30;1.40;;;18.00;99.90;;;;;;5000818;28;20469;-86
2022/07/26 07:55:41;;;;;;;4.10;1.50;;;17.90;99.90;;;;;;4986466;28;20898;-82
2022/07/26 07:58:14;;;;;;;7.70;1.70;;;17.90;99.90;;;;;;4988568;28;20453;-82
2022/07/26 08:00:46;;;;;;;2.90;1.07;;;17.80;99.90;;;;;;5005909;28;20480;-83
2022/07/26 08:03:15;;;;;;;4.23;1.20;;;17.80;99.90;;;;;;5003318;28;20527;-84
2022/07/26 08:05:46;;;;;;;2.90;1.17;;;17.90;99.90;;;;;;4985270;28;20458;-88
2022/07/26 08:08:19;;;;;;;2.90;1.13;;;17.90;99.90;;;;;;4983227;28;20942;-87
2022/07/26 08:10:51;;;;;;;5.60;1.40;;;17.90;99.90;;;;;;5003908;28;20469;-87
2022/07/26 08:13:21;;;;;;;3.60;1.60;;;17.90;99.90;;;;;;4987435;28;20477;-85
2022/07/26 08:15:52;;;;;;;7.20;1.37;;;17.90;99.90;;;;;;4994687;28;20540;-87
2022/07/26 08:18:24;;;;;;;4.60;1.40;;;18.00;99.90;;;;;;4992986;28;20449;-86
2022/07/26 08:20:53;;;;;;;3.87;1.20;;;18.10;99.90;;;;;;4990651;28;20532;-86
2022/07/26 08:23:22;;;;;;;2.50;1.27;;;18.20;99.90;;;;;;4986817;28;20818;-87
2022/07/26 08:25:52;;;;;;;3.70;1.20;;;18.40;99.90;;;;;;4987337;28;20475;-87
2022/07/26 08:28:29;;;;;;;3.50;0.97;;;18.60;99.90;;;;;;4986925;28;20503;-86
2022/07/26 08:31:18;;;;;;;3.20;1.40;;;18.90;99.90;;;;;;5007542;28;20873;-86
2022/07/26 08:33:47;;;;;;;4.20;1.50;;;19.10;99.90;;;;;;5003733;28;20986;-85
2022/07/26 08:36:17;;;;;;;3.90;1.13;;;19.10;99.90;;;;;;4986201;28;20456;-85
2022/07/26 08:38:45;;;;;;;3.73;1.20;;;19.20;99.90;;;;;;4985382;28;20849;-86
2022/07/26 08:41:15;;;;;;;5.60;1.23;;;19.30;99.90;;;;;;5001241;28;20441;-85
2022/07/26 08:43:44;;;;;;;4.37;1.30;;;19.40;99.90;;;;;;4987385;28;20479;-84
2022/07/26 08:46:21;;;;;;;3.47;0.90;;;19.40;99.90;;;;;;4983515;28;20440;-83
2022/07/26 08:48:55;;;;;;;2.80;0.80;;;19.30;99.90;;;;;;4984613;28;20572;-84
2022/07/26 08:51:25;;;;;;;4.23;1.10;;;19.20;99.90;;;;;;4983139;28;20500;-85
2022/07/26 08:53:56;;;;;;;3.37;0.90;;;19.20;99.90;;;;;;4987556;28;20476;-86
2022/07/26 08:56:35;;;;;;;2.33;0.80;;;19.30;99.90;;;;;;4991487;28;20444;-86
2022/07/26 08:59:05;;;;;;;3.23;0.90;;;19.30;99.90;;;;;;4993473;28;20475;-84
2022/07/26 09:01:50;;;;;;;4.60;1.07;;;19.30;99.90;;;;;;5010813;28;20464;-87
2022/07/26 09:04:23;;;;;;;5.07;1.30;;;19.30;99.90;;;;;;4990835;28;20449;-85
2022/07/26 09:07:01;;;;;;;4.03;1.00;;;19.30;99.90;;;;;;4990691;28;20528;-84
2022/07/26 09:09:30;;;;;;;2.63;1.13;;;19.30;99.90;;;;;;4995344;28;20425;-85
2022/07/26 09:11:58;;;;;;;4.77;1.17;;;19.30;99.90;;;;;;5012796;28;20452;-84
2022/07/26 09:14:38;;;;;;;3.67;1.03;;;19.30;99.90;;;;;;4996517;28;20457;-85
2022/07/26 09:17:08;;;;;;;5.37;1.80;;;19.20;99.90;;;;;;4995413;28;20476;-84
2022/07/26 09:19:36;;;;;;;3.83;1.43;;;19.20;99.90;;;;;;4993314;28;20456;-84
2022/07/26 09:22:09;;;;;;;3.80;1.40;;;19.30;99.90;;;;;;4993329;28;20478;-84
2022/07/26 09:24:40;;;;;;;5.70;1.47;;;19.30;99.90;;;;;;4991843;28;20516;-84
2022/07/26 09:27:11;;;;;;;4.10;1.10;;;19.40;99.90;;;;;;4991894;28;20930;-83
2022/07/26 09:29:48;;;;;;;3.73;1.07;;;19.50;99.90;;;;;;4990405;28;20445;-83
2022/07/26 09:32:19;;;;;;;5.33;1.27;;;19.60;99.90;;;;;;4990147;28;20499;-84
2022/07/26 09:34:50;;;;;;;8.27;1.27;;;19.70;99.90;;;;;;5007710;28;20452;-83
2022/07/26 09:37:35;;;;;;;4.27;1.10;;;19.80;99.90;;;;;;5006196;28;20452;-83
2022/07/26 09:40:07;;;;;;;3.20;0.80;;;20.00;99.90;;;;;;4988120;28;20448;-83
2022/07/26 09:42:36;;;;;;;3.20;1.10;;;20.10;99.90;;;;;;4987469;28;20465;-83
2022/07/26 09:45:15;;;;;;;4.83;0.87;;;20.30;99.90;;;;;;4984976;28;20803;-84
2022/07/26 09:47:45;;;;;;;4.40;1.20;;;20.40;99.90;;;;;;5000585;28;20432;-84
2022/07/26 09:50:15;;;;;;;2.60;1.00;;;20.40;99.90;;;;;;5000669;28;20496;-83
2022/07/26 09:53:02;;;;;;;2.63;1.20;;;20.40;99.90;;;;;;4997534;28;20559;-84
2022/07/26 09:55:31;;;;;;;2.30;1.10;;;20.40;99.90;;;;;;4981072;28;20986;-83
2022/07/26 09:58:12;;;;;;;3.37;1.10;;;20.40;99.90;;;;;;4981564;28;20473;-83
2022/07/26 10:00:42;;;;;;;4.73;1.10;;;20.50;99.90;;;;;;4980861;28;20994;-83
2022/07/26 10:03:12;;;;;;;5.87;1.40;;;20.50;99.90;;;;;;4998387;28;20480;-84
2022/07/26 10:05:41;;;;;;;3.40;1.17;;;20.50;99.90;;;;;;4981939;28;20499;-81
2022/07/26 10:08:10;;;;;;;6.63;1.53;;;20.50;99.90;;;;;;4986970;28;20444;-83
2022/07/26 10:10:43;;;;;;;2.90;1.10;;;20.40;99.90;;;;;;4980721;28;20508;-84
2022/07/26 10:13:11;;;;;;;2.77;0.80;;;20.40;99.90;;;;;;4982269;28;20828;-84
2022/07/26 10:15:42;;;;;;;2.10;0.80;;;20.30;99.90;;;;;;4984401;28;20834;-83
2022/07/26 10:18:46;;;;;;;3.50;1.10;;;20.30;99.90;;;;;;5001613;28;20417;-83
2022/07/26 10:21:22;;;;;;;3.03;1.03;;;20.30;99.90;;;;;;4985271;28;20441;-82
2022/07/26 10:23:51;;;;;;;2.23;0.97;;;20.40;99.90;;;;;;4999177;28;20488;-82
2022/07/26 10:26:39;;;;;;;4.30;1.30;;;20.40;99.90;;;;;;4981117;28;20479;-82
2022/07/26 10:29:28;;;;;;;5.57;1.40;;;20.40;99.90;;;;;;4981844;28;20445;-83
2022/07/26 10:32:17;;;;;;;4.60;1.70;;;20.50;99.90;;;;;;5003016;28;20453;-83
2022/07/26 10:34:47;;;;;;;3.73;1.20;;;20.50;99.90;;;;;;4984482;28;20456;-83
2022/07/26 10:37:26;;;;;;;4.17;1.30;;;20.60;99.90;;;;;;4984988;28;20463;-82
2022/07/26 10:40:18;;;;;;;5.33;1.40;;;20.60;99.90;;;;;;4982955;28;20532;-82
2022/07/26 10:42:46;;;;;;;2.97;1.80;;;20.50;99.90;;;;;;5000912;28;20992;-83
2022/07/26 10:45:22;;;;;;;4.40;0.90;;;20.50;99.90;;;;;;4984656;28;20452;-83
2022/07/26 10:48:14;;;;;;;3.23;1.30;;;20.50;99.90;;;;;;4983362;28;20471;-84
2022/07/26 10:50:45;;;;;;;4.00;1.50;;;20.50;99.90;;;;;;4984398;28;20934;-84
2022/07/26 10:53:18;;;;;;;5.07;1.43;;;20.50;99.90;;;;;;4985635;28;20492;-84
2022/07/26 10:55:51;;;;;;;5.17;2.03;;;20.50;99.90;;;;;;5002432;28;20448;-83
2022/07/26 10:58:20;;;;;;;4.63;1.20;;;20.50;99.70;;;;;;4986336;28;20448;-83
2022/07/26 11:01:00;;;;;;;3.07;1.37;;;20.60;99.60;;;;;;4985363;28;20460;-83
2022/07/26 11:03:39;;;;;;;3.10;1.00;;;20.70;99.60;;;;;;4984219;28;20476;-83
2022/07/26 11:06:14;;;;;;;3.07;1.07;;;20.80;99.60;;;;;;4984663;28;20818;-84
2022/07/26 11:08:43;;;;;;;2.80;1.00;;;21.00;99.20;;;;;;4983993;28;20807;-84
2022/07/26 11:11:27;;;;;;;2.70;1.30;;;21.10;98.90;;;;;;4985071;28;20460;-83
2022/07/26 11:14:04;;;;;;;3.70;1.10;;;21.20;98.60;;;;;;4984218;28;20559;-83
2022/07/26 11:16:37;;;;;;;4.27;1.53;;;21.20;98.20;;;;;;4984450;28;20590;-84
2022/07/26 11:19:14;;;;;;;4.67;1.30;;;21.30;98.20;;;;;;5001638;28;20420;-84
2022/07/26 11:21:44;;;;;;;4.63;1.70;;;21.30;98.10;;;;;;4984163;28;20441;-84
2022/07/26 11:24:13;;;;;;;4.90;1.87;;;21.30;98.00;;;;;;5002081;28;20798;-84
2022/07/26 11:26:43;;;;;;;2.80;0.80;;;21.20;97.70;;;;;;4985349;28;20460;-83
2022/07/26 11:29:12;;;;;;;3.47;1.50;;;21.10;97.50;;;;;;4983642;28;20850;-83
2022/07/26 11:31:46;;;;;;;3.53;1.37;;;21.10;97.30;;;;;;4983690;28;20465;-83
2022/07/26 11:34:24;;;;;;;4.77;1.27;;;21.00;97.20;;;;;;4983167;28;20468;-83
2022/07/26 11:36:55;;;;;;;6.70;2.10;;;21.00;97.30;;;;;;4983916;28;20526;-83
2022/07/26 11:39:25;;;;;;;7.73;1.30;;;20.90;97.00;;;;;;4983779;28;20432;-83
2022/07/26 11:41:58;;;;;;;6.60;1.80;;;20.90;97.00;;;;;;5000476;28;20449;-83
2022/07/26 11:44:27;;;;;;;5.00;1.80;;;20.80;97.10;;;;;;4982460;28;20433;-83
2022/07/26 11:46:57;;;;;;;11.40;2.40;;;20.70;97.20;;;;;;4999588;28;20468;-83
2022/07/26 11:49:27;;;;;;;5.67;2.03;;;20.70;97.20;;;;;;5002602;28;20440;-83
2022/07/26 11:52:17;;;;;;;7.43;2.83;;;20.60;97.30;;;;;;5008672;28;20870;-84
2022/07/26 11:54:54;;;;;;;9.17;2.50;;;20.60;97.40;;;;;;4987292;28;20447;-82
2022/07/26 11:57:28;;;;;;;6.53;2.70;;;20.50;97.40;;;;;;4985675;28;20534;-82
2022/07/26 11:59:56;;;;;;;10.03;2.60;;;20.40;97.50;;;;;;5003092;28;20432;-82
2022/07/26 12:02:25;;;;;;;4.87;2.17;;;20.40;97.50;;;;;;4984750;28;20484;-84
2022/07/26 12:05:12;;;;;;;9.60;2.63;;;20.30;97.60;;;;;;4985246;28;20483;-84
2022/07/26 12:07:55;;;;;;;11.83;3.10;;;20.30;97.70;;;;;;4984678;28;20441;-84
2022/07/26 12:10:23;;;;;;;8.93;2.63;;;20.30;97.80;;;;;;5000788;28;20453;-84
2022/07/26 12:13:07;;;;;;;6.40;2.77;;;20.30;97.90;;;;;;5001251;28;20571;-84
2022/07/26 12:15:45;;;;;;;8.30;2.30;;;20.30;97.80;;;;;;5001755;28;20893;-84
2022/07/26 12:18:22;;;;;;;5.77;2.23;;;20.30;97.70;;;;;;4999818;28;20468;-83
2022/07/26 12:21:01;;;;;;;7.67;2.57;;;20.30;97.70;;;;;;4983738;28;20440;-83
2022/07/26 12:23:48;;;;;;;8.77;2.90;;;20.20;97.70;;;;;;4983033;28;20500;-83
2022/07/26 12:26:22;;;;;;;4.83;2.37;;;20.30;97.70;;;;;;5000173;28;20428;-83
2022/07/26 12:28:50;;;;;;;9.23;2.67;;;20.30;97.70;;;;;;4982696;28;20515;-83
2022/07/26 12:31:23;;;;;;;7.53;2.23;;;20.30;97.60;;;;;;4982176;28;20511;-83
2022/07/26 12:33:52;;;;;;;8.60;2.43;;;20.30;97.50;;;;;;4999877;28;20632;-84
2022/07/26 12:36:23;;;;;;;8.40;2.50;;;20.30;97.40;;;;;;4982045;28;20453;-83
2022/07/26 12:38:58;;;;;;;6.33;2.23;;;20.30;97.50;;;;;;4981897;28;20444;-83
2022/07/26 12:41:34;;;;;;;11.30;3.50;;;20.30;97.10;;;;;;4981753;28;20449;-83
2022/07/26 12:44:03;;;;;;;7.60;2.47;;;20.30;97.10;;;;;;4981477;28;20548;-83
2022/07/26 12:46:33;;;;;;;8.40;2.80;;;20.30;96.90;;;;;;4981315;28;20449;-83
2022/07/26 12:49:02;;;;;;;5.03;1.97;;;20.30;96.80;;;;;;4997787;28;20537;-83
2022/07/26 12:51:30;;;;;;;5.73;2.40;;;20.30;96.70;;;;;;4997334;28;20468;-83
2022/07/26 12:54:00;;;;;;;5.13;2.20;;;20.40;96.70;;;;;;4998807;28;20514;-83
2022/07/26 12:56:28;;;;;;;6.97;2.10;;;20.50;96.70;;;;;;5000801;28;20460;-82
2022/07/26 12:58:59;;;;;;;6.80;2.00;;;20.60;96.80;;;;;;4994376;28;20448;-82
2022/07/26 13:01:29;;;;;;;9.10;2.70;;;20.80;96.80;;;;;;4994629;28;20460;-82
2022/07/26 13:03:58;;;;;;;5.50;1.67;;;20.90;96.60;;;;;;4986130;28;20507;-82
2022/07/26 13:06:26;;;;;;;7.37;2.23;;;21.00;96.50;;;;;;4982338;28;20452;-82
2022/07/26 13:08:55;;;;;;;5.47;1.60;;;21.10;96.40;;;;;;5000213;28;20610;-81
2022/07/26 13:11:25;;;;;;;7.20;2.03;;;21.00;96.00;;;;;;4999979;28;20456;-82